Time;durP1;ratioP1;P1;durP2;ratioP2;P2;SDS_P1;SDS_P2;PMS_P1;PMS_P2;Temp;Humidity;BMP_temperature;BMP_pressure;BME280_temperature;BME280_humidity;BME280_pressure;Samples;Min_cycle;Max_cycle;Signal;HPM_P1;HPM_P2
2023/08/18 00:00:21;;;;;;;5.70;4.43;;;17.70;96.90;;;;;;5064466;28;20056;-82
2023/08/18 00:02:47;;;;;;;5.07;4.57;;;17.70;97.00;;;;;;5064250;28;20067;-84
2023/08/18 00:05:13;;;;;;;7.85;4.97;;;17.70;97.10;;;;;;5092646;28;20048;-81
2023/08/18 00:07:40;;;;;;;5.55;4.93;;;17.70;97.10;;;;;;5080190;28;20097;-80
2023/08/18 00:10:08;;;;;;;7.60;4.90;;;17.70;97.20;;;;;;5060048;28;20051;-83
2023/08/18 00:12:34;;;;;;;6.13;4.90;;;17.60;97.20;;;;;;5075081;28;20483;-81
2023/08/18 00:15:01;;;;;;;6.78;4.85;;;17.70;97.20;;;;;;5060022;28;20055;-82
2023/08/18 00:17:27;;;;;;;6.88;4.63;;;17.50;97.20;;;;;;5077754;28;20267;-84
2023/08/18 00:19:53;;;;;;;6.65;4.30;;;17.60;97.30;;;;;;5074445;28;20048;-81
2023/08/18 00:22:19;;;;;;;6.75;4.55;;;17.60;97.30;;;;;;5062509;28;20101;-80
2023/08/18 00:24:45;;;;;;;6.47;4.15;;;17.60;97.30;;;;;;5062237;28;20454;-80
2023/08/18 00:27:10;;;;;;;4.75;3.53;;;17.60;97.30;;;;;;5089513;28;20059;-82
2023/08/18 00:29:37;;;;;;;4.63;3.78;;;17.50;97.30;;;;;;5060304;28;20051;-84
2023/08/18 00:32:03;;;;;;;4.88;3.80;;;17.60;97.30;;;;;;5041899;28;20063;-81
2023/08/18 00:34:29;;;;;;;5.35;4.25;;;17.50;97.30;;;;;;5042193;28;20051;-83
2023/08/18 00:36:56;;;;;;;5.60;3.80;;;17.30;97.20;;;;;;5047628;28;20047;-81
2023/08/18 00:39:23;;;;;;;4.45;3.92;;;17.50;97.30;;;;;;5094209;28;20503;-82
2023/08/18 00:41:49;;;;;;;6.22;3.95;;;17.50;97.30;;;;;;5074916;28;20048;-81
2023/08/18 00:44:14;;;;;;;5.57;4.10;;;17.50;97.30;;;;;;5059284;28;20104;-81
2023/08/18 00:46:42;;;;;;;5.97;4.30;;;17.50;97.30;;;;;;5061776;28;20079;-82
2023/08/18 00:49:10;;;;;;;5.93;3.30;;;17.50;97.30;;;;;;5075923;28;20046;-84
2023/08/18 00:51:40;;;;;;;4.35;3.55;;;17.40;97.30;;;;;;5092888;28;20042;-81
2023/08/18 00:54:10;;;;;;;5.68;4.07;;;17.40;97.30;;;;;;5082591;28;20047;-81
2023/08/18 00:56:36;;;;;;;5.10;3.85;;;17.50;97.40;;;;;;5113507;27;20075;-82
2023/08/18 00:59:10;;;;;;;4.45;3.88;;;17.50;97.40;;;;;;5083230;28;20048;-81
2023/08/18 01:01:38;;;;;;;5.75;4.00;;;17.40;97.30;;;;;;5063110;28;20055;-81
2023/08/18 01:04:05;;;;;;;6.53;4.15;;;17.80;97.50;;;;;;5110030;27;20357;-83
2023/08/18 01:06:33;;;;;;;5.72;3.65;;;17.40;97.40;;;;;;5094728;27;20406;-82
2023/08/18 01:08:59;;;;;;;5.43;3.92;;;17.40;97.30;;;;;;5096207;28;20040;-81
2023/08/18 01:11:34;;;;;;;5.20;4.55;;;17.40;97.30;;;;;;5064515;28;20044;-81
2023/08/18 01:14:30;;;;;;;6.05;4.00;;;17.40;97.40;;;;;;5092252;28;20130;-80
2023/08/18 01:17:06;;;;;;;6.95;4.20;;;17.40;97.40;;;;;;5110726;27;20134;-82
2023/08/18 01:19:33;;;;;;;6.13;4.03;;;17.40;97.40;;;;;;5071405;28;20112;-83
2023/08/18 01:22:01;;;;;;;5.95;4.22;;;17.30;97.40;;;;;;5096209;28;20394;-81
2023/08/18 01:24:27;;;;;;;6.10;4.32;;;17.30;97.50;;;;;;5074548;28;20508;-84
2023/08/18 01:26:53;;;;;;;5.18;4.18;;;17.30;97.50;;;;;;5064428;28;20040;-84
2023/08/18 01:29:21;;;;;;;5.38;3.65;;;17.30;97.60;;;;;;5077245;28;20039;-81
2023/08/18 01:31:53;;;;;;;5.15;4.18;;;17.30;97.60;;;;;;5077297;28;20498;-83
2023/08/18 01:34:23;;;;;;;5.22;3.88;;;17.30;97.70;;;;;;5074126;28;20261;-84
2023/08/18 01:36:51;;;;;;;4.50;3.75;;;17.30;97.70;;;;;;5059634;28;20505;-81
2023/08/18 01:39:20;;;;;;;5.85;3.72;;;17.20;97.70;;;;;;5077713;28;20229;-84
2023/08/18 01:41:46;;;;;;;5.35;4.13;;;17.20;97.80;;;;;;5074954;28;20426;-82
2023/08/18 01:44:16;;;;;;;5.70;3.83;;;17.20;97.80;;;;;;5062762;28;20147;-82
2023/08/18 01:46:42;;;;;;;4.93;4.15;;;17.20;97.80;;;;;;5077711;28;20166;-84
2023/08/18 01:49:08;;;;;;;5.10;3.60;;;17.20;97.80;;;;;;5082755;28;20046;-82
2023/08/18 01:51:34;;;;;;;6.75;3.80;;;17.20;97.90;;;;;;5058610;28;20052;-84
2023/08/18 01:54:00;;;;;;;5.13;3.78;;;17.20;97.90;;;;;;5077639;28;20058;-83
2023/08/18 01:56:26;;;;;;;4.38;3.30;;;17.20;97.90;;;;;;5074218;27;20051;-82
2023/08/18 01:58:53;;;;;;;5.05;3.10;;;17.10;98.00;;;;;;5063163;28;20048;-82
2023/08/18 02:01:22;;;;;;;4.53;3.50;;;17.20;98.00;;;;;;5094946;28;20071;-82
2023/08/18 02:03:51;;;;;;;4.00;3.47;;;17.20;98.00;;;;;;5049978;28;20086;-86
2023/08/18 02:06:18;;;;;;;4.70;3.08;;;17.10;98.10;;;;;;5063454;28;20043;-82
2023/08/18 02:08:44;;;;;;;5.10;3.63;;;17.10;98.10;;;;;;5064124;28;20494;-83
2023/08/18 02:11:10;;;;;;;6.07;3.92;;;17.10;98.10;;;;;;5090821;28;20040;-86
2023/08/18 02:13:36;;;;;;;4.50;3.08;;;17.10;98.10;;;;;;5058738;28;20074;-82
2023/08/18 02:16:03;;;;;;;5.53;3.47;;;17.10;98.10;;;;;;5059548;28;20354;-83
2023/08/18 02:18:28;;;;;;;4.68;3.63;;;17.10;98.20;;;;;;5092717;28;20059;-83
2023/08/18 02:20:59;;;;;;;5.22;3.75;;;17.10;98.20;;;;;;5076285;28;20039;-84
2023/08/18 02:23:25;;;;;;;4.10;3.10;;;17.10;98.20;;;;;;5060746;28;20055;-82
2023/08/18 02:25:51;;;;;;;5.88;3.58;;;17.00;98.30;;;;;;5075384;27;20394;-83
2023/08/18 02:28:19;;;;;;;3.25;2.83;;;17.00;98.30;;;;;;5076336;28;20044;-83
2023/08/18 02:30:45;;;;;;;5.03;3.13;;;17.00;98.40;;;;;;5044747;28;20067;-83
2023/08/18 02:33:11;;;;;;;3.83;3.08;;;16.90;98.40;;;;;;5046264;28;20150;-81
2023/08/18 02:35:37;;;;;;;4.60;3.50;;;16.90;98.50;;;;;;5088860;28;20530;-83
2023/08/18 02:38:02;;;;;;;5.75;3.47;;;16.90;98.50;;;;;;5107945;27;20039;-85
2023/08/18 02:40:28;;;;;;;3.70;3.30;;;16.80;98.50;;;;;;5090486;28;20075;-84
2023/08/18 02:42:54;;;;;;;7.53;3.25;;;16.80;98.60;;;;;;5076936;28;20753;-82
2023/08/18 02:45:20;;;;;;;3.97;3.10;;;16.80;98.70;;;;;;5093052;28;20056;-86
2023/08/18 02:47:46;;;;;;;4.80;3.85;;;16.70;98.70;;;;;;5093206;28;20040;-85
2023/08/18 02:50:12;;;;;;;5.50;3.95;;;16.70;98.80;;;;;;5094685;28;20085;-81
2023/08/18 02:52:38;;;;;;;3.97;3.08;;;16.70;98.80;;;;;;5076548;28;20112;-83
2023/08/18 02:55:04;;;;;;;4.03;3.60;;;16.60;98.80;;;;;;5063104;28;20038;-82
2023/08/18 02:57:30;;;;;;;4.80;3.70;;;16.60;98.90;;;;;;5075623;28;20602;-86
2023/08/18 02:59:56;;;;;;;4.45;3.70;;;16.50;99.00;;;;;;5048425;28;20054;-83
2023/08/18 03:02:21;;;;;;;4.68;3.58;;;16.50;99.10;;;;;;5096729;28;20043;-84
2023/08/18 03:04:47;;;;;;;6.63;4.05;;;16.50;99.10;;;;;;5047659;28;20123;-83
2023/08/18 03:07:13;;;;;;;6.45;3.80;;;16.40;99.20;;;;;;5062993;28;20056;-86
2023/08/18 03:09:39;;;;;;;5.18;3.67;;;16.40;99.20;;;;;;5063073;28;20390;-82
2023/08/18 03:12:06;;;;;;;4.70;3.55;;;16.40;99.30;;;;;;5110142;27;20080;-82
2023/08/18 03:14:31;;;;;;;5.60;3.92;;;16.30;99.40;;;;;;5074779;28;20406;-82
2023/08/18 03:16:57;;;;;;;5.15;3.55;;;16.30;99.40;;;;;;5064878;28;20048;-84
2023/08/18 03:19:24;;;;;;;5.18;3.83;;;16.30;99.50;;;;;;5060931;28;20063;-84
2023/08/18 03:21:50;;;;;;;4.05;3.65;;;16.30;99.80;;;;;;5075997;28;20063;-82
2023/08/18 03:24:17;;;;;;;5.28;3.58;;;16.30;99.60;;;;;;5076865;28;20047;-83
2023/08/18 03:26:42;;;;;;;4.60;3.75;;;16.30;99.60;;;;;;5108242;27;20108;-83
2023/08/18 03:29:11;;;;;;;5.10;3.65;;;16.30;99.70;;;;;;5078679;28;20054;-86
2023/08/18 03:31:37;;;;;;;6.00;4.30;;;16.30;99.70;;;;;;5110230;27;20399;-86
2023/08/18 03:34:04;;;;;;;6.15;4.15;;;16.30;99.70;;;;;;5076011;28;20047;-86
2023/08/18 03:36:29;;;;;;;6.82;3.92;;;16.20;99.70;;;;;;5062751;28;20122;-81
2023/08/18 03:38:55;;;;;;;4.53;3.70;;;16.20;99.90;;;;;;5080568;28;20454;-84
2023/08/18 03:41:21;;;;;;;5.13;4.10;;;15.90;99.80;;;;;;5075047;28;20035;-83
2023/08/18 03:43:47;;;;;;;6.20;4.30;;;16.20;99.90;;;;;;5059091;28;20650;-85
2023/08/18 03:46:33;;;;;;;6.28;4.35;;;16.20;99.90;;;;;;5077590;28;20066;-82
2023/08/18 03:48:59;;;;;;;;;;;16.10;99.90;;;;;;5048665;28;20126;-82
2023/08/18 03:51:25;;;;;;;5.60;3.97;;;16.10;99.90;;;;;;5091675;28;19929;-82
2023/08/18 03:53:51;;;;;;;5.80;4.15;;;16.10;99.90;;;;;;5056712;28;20052;-81
2023/08/18 03:56:17;;;;;;;5.78;4.20;;;16.10;99.90;;;;;;5079701;28;20101;-87
2023/08/18 03:58:44;;;;;;;6.75;4.65;;;16.10;99.90;;;;;;5108324;27;20129;-83
2023/08/18 04:01:09;;;;;;;5.93;3.92;;;16.20;99.90;;;;;;5076238;28;20079;-81
2023/08/18 04:03:37;;;;;;;5.55;3.92;;;16.20;99.90;;;;;;5109384;28;20163;-86
2023/08/18 04:06:03;;;;;;;5.40;4.10;;;16.20;99.90;;;;;;5077214;28;20044;-83
2023/08/18 04:08:34;;;;;;;9.20;4.15;;;16.20;99.90;;;;;;5075393;28;20168;-83
2023/08/18 04:11:00;;;;;;;5.70;3.90;;;16.20;99.90;;;;;;5045398;28;20120;-84
2023/08/18 04:13:26;;;;;;;5.65;4.00;;;16.20;99.90;;;;;;5088665;28;20135;-81
2023/08/18 04:15:54;;;;;;;7.28;3.78;;;16.20;99.90;;;;;;5093247;28;20044;-85
2023/08/18 04:18:20;;;;;;;6.10;4.00;;;16.20;99.90;;;;;;5076619;28;20047;-82
2023/08/18 04:20:47;;;;;;;4.88;3.85;;;16.20;99.90;;;;;;5060284;28;20571;-85
2023/08/18 04:23:13;;;;;;;6.80;4.35;;;16.30;99.90;;;;;;5061914;28;20390;-85
2023/08/18 04:25:42;;;;;;;5.25;3.95;;;16.20;99.90;;;;;;5094360;28;20036;-82
2023/08/18 04:28:08;;;;;;;6.35;4.03;;;16.30;99.90;;;;;;5066190;28;20059;-85
2023/08/18 04:30:34;;;;;;;4.63;3.95;;;16.30;99.90;;;;;;5097619;28;20035;-82
2023/08/18 04:32:59;;;;;;;5.88;4.47;;;16.40;99.90;;;;;;5051627;28;20052;-79
2023/08/18 04:35:25;;;;;;;6.90;4.15;;;16.40;99.90;;;;;;5096849;28;20052;-85
2023/08/18 04:37:51;;;;;;;6.28;4.30;;;16.40;99.90;;;;;;5095876;28;20052;-84
2023/08/18 04:40:17;;;;;;;6.25;3.78;;;16.40;99.90;;;;;;5084176;28;20247;-85
2023/08/18 04:42:43;;;;;;;7.18;4.00;;;16.50;99.90;;;;;;5101573;28;20123;-85
2023/08/18 04:45:10;;;;;;;5.53;3.95;;;16.50;99.90;;;;;;5100300;28;20042;-82
2023/08/18 04:47:36;;;;;;;5.22;4.05;;;16.50;99.90;;;;;;5062147;27;20044;-84
2023/08/18 04:50:04;;;;;;;6.70;3.88;;;16.50;99.90;;;;;;5095099;28;20123;-83
2023/08/18 04:52:31;;;;;;;6.28;4.40;;;16.60;99.90;;;;;;5094369;28;20048;-83
2023/08/18 04:54:56;;;;;;;5.80;4.47;;;16.50;99.90;;;;;;5066105;28;20052;-88
2023/08/18 04:57:22;;;;;;;5.25;3.95;;;16.60;99.90;;;;;;5084571;28;20050;-83
2023/08/18 04:59:48;;;;;;;6.22;4.10;;;16.60;99.90;;;;;;5085372;28;20052;-83
2023/08/18 05:02:14;;;;;;;7.78;4.97;;;16.60;99.90;;;;;;5061337;27;20047;-86
2023/08/18 05:04:41;;;;;;;9.77;5.20;;;16.60;99.90;;;;;;5063915;28;20078;-84
2023/08/18 05:07:15;;;;;;;6.53;4.68;;;16.60;99.90;;;;;;5064614;28;20416;-75
2023/08/18 05:09:43;;;;;;;6.93;4.50;;;16.70;99.90;;;;;;5078206;28;20047;-81
2023/08/18 05:12:09;;;;;;;8.43;4.93;;;16.70;99.90;;;;;;5080525;28;20215;-81
2023/08/18 05:14:35;;;;;;;7.18;5.38;;;17.70;99.90;;;;;;5047652;28;20127;-81
2023/08/18 05:17:03;;;;;;;8.68;5.20;;;16.70;99.90;;;;;;5032605;28;20525;-80
2023/08/18 05:19:28;;;;;;;10.32;5.60;;;16.80;99.90;;;;;;5096295;28;21761;-82
2023/08/18 05:21:55;;;;;;;9.32;5.55;;;16.80;99.90;;;;;;5059610;28;20383;-81
2023/08/18 05:24:20;;;;;;;11.40;6.15;;;16.80;99.90;;;;;;5096179;28;20043;-80
2023/08/18 05:26:46;;;;;;;9.55;5.85;;;16.80;99.90;;;;;;5060198;28;20096;-80
2023/08/18 05:29:13;;;;;;;12.57;6.18;;;16.80;99.90;;;;;;5045599;28;20503;-81
2023/08/18 05:31:39;;;;;;;12.13;6.45;;;16.80;99.90;;;;;;5061370;28;20046;-82
2023/08/18 05:34:05;;;;;;;9.20;6.30;;;16.90;99.90;;;;;;5060835;28;20036;-80
2023/08/18 05:36:31;;;;;;;12.70;7.45;;;16.90;99.90;;;;;;5077723;28;20097;-79
2023/08/18 05:39:03;;;;;;;12.20;7.05;;;16.90;99.90;;;;;;5072785;28;20062;-81
2023/08/18 05:41:28;;;;;;;11.73;6.55;;;17.00;99.90;;;;;;5061866;28;20040;-81
2023/08/18 05:43:54;;;;;;;10.90;6.07;;;17.00;99.90;;;;;;5062566;28;20047;-85
2023/08/18 05:46:24;;;;;;;14.20;6.70;;;17.00;99.90;;;;;;5079981;28;20071;-81
2023/08/18 05:48:50;;;;;;;13.43;6.25;;;17.00;99.90;;;;;;5030384;28;20043;-82
2023/08/18 05:51:18;;;;;;;13.90;6.38;;;17.00;99.90;;;;;;5062986;28;20055;-81
2023/08/18 05:53:44;;;;;;;11.75;6.80;;;17.10;99.90;;;;;;5065018;28;20082;-82
2023/08/18 05:56:10;;;;;;;11.50;6.00;;;17.10;99.90;;;;;;5095515;28;20138;-83
2023/08/18 05:58:35;;;;;;;8.82;5.68;;;17.10;99.90;;;;;;5044128;28;20035;-80
2023/08/18 06:01:01;;;;;;;8.85;5.80;;;17.20;99.90;;;;;;5090517;28;20051;-83
2023/08/18 06:03:27;;;;;;;10.60;7.22;;;17.20;99.90;;;;;;5090352;27;20048;-84
2023/08/18 06:05:53;;;;;;;9.57;6.00;;;17.20;99.90;;;;;;5096507;28;20485;-84
2023/08/18 06:08:19;;;;;;;11.75;5.85;;;17.60;99.90;;;;;;5109919;27;20123;-81
2023/08/18 06:10:47;;;;;;;9.45;5.78;;;17.30;99.90;;;;;;5062295;28;20126;-84
2023/08/18 06:13:12;;;;;;;9.77;5.95;;;17.40;99.90;;;;;;5062575;28;20040;-82
2023/08/18 06:15:38;;;;;;;8.35;5.68;;;17.40;99.90;;;;;;5095279;27;20050;-85
2023/08/18 06:18:04;;;;;;;8.95;5.25;;;17.40;99.90;;;;;;5097054;28;20529;-83
2023/08/18 06:20:32;;;;;;;8.43;5.40;;;17.50;99.90;;;;;;5065307;28;20196;-89
2023/08/18 06:22:57;;;;;;;8.15;5.78;;;17.50;99.90;;;;;;5096622;28;20104;-82
2023/08/18 06:25:23;;;;;;;10.48;6.25;;;17.50;99.90;;;;;;5094838;27;20474;-81
2023/08/18 06:27:56;;;;;;;10.73;6.70;;;17.50;99.90;;;;;;5097424;27;20055;-84
2023/08/18 06:30:22;;;;;;;11.55;6.13;;;17.50;99.90;;;;;;5049180;28;20066;-84
2023/08/18 06:32:47;;;;;;;11.13;6.53;;;17.60;99.90;;;;;;5083651;28;21500;-83
2023/08/18 06:35:15;;;;;;;10.18;6.35;;;17.50;99.90;;;;;;5082804;27;20104;-83
2023/08/18 06:37:43;;;;;;;10.55;6.40;;;17.60;99.90;;;;;;5047286;28;20054;-82
2023/08/18 06:40:28;;;;;;;11.27;6.63;;;17.60;99.90;;;;;;5080340;28;20088;-80
2023/08/18 06:42:53;;;;;;;10.38;6.40;;;17.70;99.90;;;;;;5047967;28;20051;-80
2023/08/18 06:45:20;;;;;;;10.52;6.18;;;17.70;99.90;;;;;;5092391;27;20097;-82
2023/08/18 06:47:46;;;;;;;10.65;6.40;;;17.40;99.90;;;;;;5095788;28;20139;-82
2023/08/18 06:50:12;;;;;;;12.73;7.55;;;17.80;99.90;;;;;;5086208;28;20401;-82
2023/08/18 06:52:37;;;;;;;14.65;7.40;;;17.30;99.90;;;;;;5073522;28;20116;-81
2023/08/18 06:55:16;;;;;;;10.77;5.93;;;17.80;99.90;;;;;;5041356;28;20068;-83
2023/08/18 06:58:03;;;;;;;11.95;6.45;;;17.80;99.90;;;;;;5073422;27;20063;-80
2023/08/18 07:00:29;;;;;;;;;;;17.90;99.90;;;;;;5071965;28;20143;-84
2023/08/18 07:02:59;;;;;;;10.90;6.60;;;17.90;99.90;;;;;;5073851;27;19933;-83
2023/08/18 07:05:26;;;;;;;10.13;5.90;;;18.10;99.90;;;;;;5076338;28;20075;-81
2023/08/18 07:07:54;;;;;;;9.07;6.03;;;18.00;99.90;;;;;;5043377;28;20099;-82
2023/08/18 07:10:27;;;;;;;9.60;6.50;;;18.00;99.90;;;;;;5107200;27;20524;-76
2023/08/18 07:13:14;;;;;;;10.43;5.80;;;18.10;99.90;;;;;;5089489;28;20343;-76
2023/08/18 07:16:05;;;;;;;9.05;6.13;;;17.50;99.90;;;;;;5073148;27;20074;-76
2023/08/18 07:18:54;;;;;;;9.20;5.95;;;18.10;99.90;;;;;;5073632;28;20055;-77
2023/08/18 07:21:20;;;;;;;8.48;5.63;;;18.20;99.90;;;;;;5106141;27;20054;-80
2023/08/18 07:23:46;;;;;;;8.60;6.07;;;18.20;99.90;;;;;;5058286;28;20479;-81
2023/08/18 07:26:12;;;;;;;10.40;6.03;;;18.30;99.90;;;;;;5042257;28;20136;-81
2023/08/18 07:28:38;;;;;;;8.02;5.55;;;17.60;99.90;;;;;;5039364;28;20060;-81
2023/08/18 07:31:04;;;;;;;10.05;5.75;;;18.40;99.90;;;;;;5072578;28;20052;-80
2023/08/18 07:33:31;;;;;;;8.95;5.70;;;18.50;99.90;;;;;;5073850;28;20042;-81
2023/08/18 07:35:58;;;;;;;7.45;5.50;;;17.90;99.70;;;;;;5070627;28;20672;-81
2023/08/18 07:38:24;;;;;;;9.63;5.60;;;18.60;99.90;;;;;;5074202;28;20096;-80
2023/08/18 07:40:51;;;;;;;7.53;5.10;;;18.60;99.80;;;;;;5072588;28;20048;-80
2023/08/18 07:43:17;;;;;;;7.47;5.43;;;18.60;99.70;;;;;;5072739;27;20095;-82
2023/08/18 07:45:45;;;;;;;7.25;5.00;;;18.70;99.60;;;;;;5077677;28;20048;-80
2023/08/18 07:48:12;;;;;;;8.35;5.18;;;18.30;99.40;;;;;;5044007;28;20131;-81
2023/08/18 07:50:42;;;;;;;6.70;4.78;;;18.70;99.30;;;;;;5044816;28;20039;-81
2023/08/18 07:53:08;;;;;;;8.65;4.85;;;18.80;99.20;;;;;;5090322;28;20052;-80
2023/08/18 07:55:34;;;;;;;7.05;4.47;;;18.80;99.10;;;;;;5061001;28;20050;-79
2023/08/18 07:58:00;;;;;;;7.00;3.92;;;18.80;99.00;;;;;;5088220;28;20040;-76
2023/08/18 08:00:26;;;;;;;6.22;4.13;;;18.90;98.90;;;;;;5088808;28;20035;-76
2023/08/18 08:03:32;;;;;;;7.20;4.47;;;18.90;98.80;;;;;;5076859;28;20052;-77
2023/08/18 08:05:58;;;;;;;7.05;4.22;;;19.00;98.60;;;;;;5057246;28;20052;-77
2023/08/18 08:12:08;;;;;;;6.22;4.60;;;19.20;98.40;;;;;;5071572;28;20178;-78
2023/08/18 08:15:19;;;;;;;7.75;4.40;;;19.30;98.20;;;;;;5104906;28;20054;-76
2023/08/18 08:18:23;;;;;;;5.95;3.95;;;19.40;98.00;;;;;;5092051;28;20044;-76
2023/08/18 08:21:16;;;;;;;8.65;4.00;;;19.40;97.80;;;;;;5074937;28;20056;-75
2023/08/18 08:24:31;;;;;;;8.20;4.05;;;19.50;97.70;;;;;;5056677;28;20055;-78
2023/08/18 08:27:18;;;;;;;5.63;3.80;;;19.60;97.50;;;;;;5092014;28;20044;-79
2023/08/18 08:30:07;;;;;;;5.75;3.53;;;19.70;97.30;;;;;;5071274;28;20478;-82
2023/08/18 08:33:04;;;;;;;5.03;3.72;;;19.80;97.20;;;;;;5076174;28;20490;-78
2023/08/18 08:36:06;;;;;;;6.32;3.17;;;19.90;97.20;;;;;;5076561;28;20093;-78
2023/08/18 08:39:01;;;;;;;4.43;2.72;;;20.00;96.60;;;;;;5111839;28;20090;-78
2023/08/18 08:42:19;;;;;;;4.47;2.70;;;19.70;96.20;;;;;;5077470;28;20048;-83
2023/08/18 08:45:03;;;;;;;4.00;2.80;;;19.50;95.90;;;;;;5094634;28;20135;-80
2023/08/18 08:48:11;;;;;;;5.32;3.20;;;20.20;96.20;;;;;;5079732;28;20047;-78
2023/08/18 08:50:58;;;;;;;3.33;2.60;;;20.30;95.70;;;;;;5092607;28;20101;-80
2023/08/18 08:53:35;;;;;;;4.50;3.17;;;20.30;95.70;;;;;;5062270;28;20196;-82
2023/08/18 08:56:43;;;;;;;4.10;2.90;;;20.40;95.50;;;;;;5076187;28;20054;-79
2023/08/18 09:00:10;;;;;;;4.88;3.20;;;19.90;94.80;;;;;;5090918;28;20187;-80
2023/08/18 09:03:15;;;;;;;4.78;2.80;;;20.50;94.80;;;;;;5092514;28;20219;-79
2023/08/18 09:05:44;;;;;;;4.00;2.40;;;20.50;94.50;;;;;;5091087;28;20048;-85
2023/08/18 09:08:11;;;;;;;4.97;2.90;;;20.40;94.80;;;;;;5076120;28;20067;-85
2023/08/18 09:10:39;;;;;;;4.78;2.78;;;20.40;94.70;;;;;;5072203;28;20481;-86
2023/08/18 09:13:05;;;;;;;3.95;2.63;;;20.50;94.80;;;;;;5090321;28;20126;-84
2023/08/18 09:15:31;;;;;;;5.72;2.75;;;20.50;94.70;;;;;;5082846;27;20043;-83
2023/08/18 09:17:59;;;;;;;4.18;3.05;;;20.60;94.50;;;;;;5095261;28;20597;-83
2023/08/18 09:20:28;;;;;;;7.28;3.25;;;20.60;94.40;;;;;;5061997;28;20054;-83
2023/08/18 09:23:09;;;;;;;5.65;3.25;;;20.60;94.30;;;;;;5021969;28;20064;-83
2023/08/18 09:25:35;;;;;;;4.47;3.13;;;20.60;94.30;;;;;;5022349;28;20057;-87
2023/08/18 09:28:03;;;;;;;5.68;3.20;;;20.60;94.30;;;;;;5019025;28;20076;-84
2023/08/18 09:30:32;;;;;;;5.28;3.25;;;20.70;94.20;;;;;;5038133;28;20205;-87
2023/08/18 09:33:03;;;;;;;5.80;3.00;;;20.70;94.20;;;;;;5022663;28;20135;-86
2023/08/18 09:35:35;;;;;;;7.43;3.50;;;20.70;94.00;;;;;;5017720;28;20101;-87
2023/08/18 09:38:02;;;;;;;4.30;3.00;;;20.70;93.70;;;;;;5048218;28;20121;-87
2023/08/18 09:40:29;;;;;;;5.00;3.33;;;20.90;93.60;;;;;;5026388;28;20044;-86
2023/08/18 09:42:56;;;;;;;5.53;3.45;;;21.30;93.50;;;;;;5035858;28;20048;-86
2023/08/18 09:45:27;;;;;;;7.03;3.70;;;20.90;93.00;;;;;;5036064;28;20053;-83
2023/08/18 09:47:57;;;;;;;4.90;3.22;;;20.90;93.00;;;;;;5052634;28;20142;-83
2023/08/18 09:50:30;;;;;;;5.10;3.58;;;20.90;93.20;;;;;;5052059;28;20045;-84
2023/08/18 09:52:58;;;;;;;6.50;3.45;;;20.40;93.00;;;;;;5047114;28;20056;-85
2023/08/18 09:55:38;;;;;;;5.85;3.40;;;21.10;93.00;;;;;;5085238;27;20051;-82
2023/08/18 09:58:30;;;;;;;3.83;2.83;;;21.20;92.70;;;;;;5100515;27;21227;-84
2023/08/18 10:00:56;;;;;;;7.57;4.43;;;21.20;92.30;;;;;;5084799;27;20049;-83
2023/08/18 10:03:28;;;;;;;5.90;3.50;;;21.30;92.50;;;;;;5068704;27;20039;-82
2023/08/18 10:05:56;;;;;;;5.80;3.75;;;21.30;92.50;;;;;;5096944;27;20055;-83
2023/08/18 10:08:25;;;;;;;4.95;3.40;;;21.30;92.30;;;;;;5081585;27;20084;-84
2023/08/18 10:10:51;;;;;;;6.25;3.85;;;21.40;92.20;;;;;;5079214;27;20128;-85
2023/08/18 10:13:19;;;;;;;5.28;3.30;;;21.40;92.20;;;;;;5098359;27;20051;-84
2023/08/18 10:15:47;;;;;;;5.68;3.40;;;21.40;92.10;;;;;;5094203;27;20083;-83
2023/08/18 10:18:13;;;;;;;6.10;3.70;;;21.50;92.10;;;;;;5067762;27;20047;-84
2023/08/18 10:20:50;;;;;;;8.95;4.03;;;21.40;91.80;;;;;;5067642;27;20061;-83
2023/08/18 10:23:30;;;;;;;9.90;4.05;;;21.40;91.70;;;;;;5097254;27;20050;-83
2023/08/18 10:25:59;;;;;;;6.40;3.85;;;21.40;91.80;;;;;;5079996;27;20085;-86
2023/08/18 10:28:29;;;;;;;9.02;4.10;;;21.40;91.90;;;;;;5084428;27;20051;-83
2023/08/18 10:31:04;;;;;;;6.25;4.13;;;21.40;91.90;;;;;;5093916;27;20035;-80
2023/08/18 10:33:38;;;;;;;7.57;4.07;;;21.50;92.00;;;;;;5113756;27;20046;-79
2023/08/18 10:36:29;;;;;;;4.63;3.78;;;20.90;91.70;;;;;;5081519;27;20044;-80
2023/08/18 10:38:54;;;;;;;6.85;3.90;;;21.50;91.80;;;;;;5096782;27;20070;-82
2023/08/18 10:41:28;;;;;;;7.10;4.03;;;21.50;91.80;;;;;;5091891;27;20804;-82
2023/08/18 10:43:57;;;;;;;7.85;3.80;;;21.60;91.60;;;;;;5095207;27;20112;-80
2023/08/18 10:46:37;;;;;;;6.85;4.13;;;21.50;91.70;;;;;;5087163;27;20043;-82
2023/08/18 10:49:03;;;;;;;5.03;3.55;;;21.60;91.60;;;;;;5089256;27;20487;-83
2023/08/18 10:51:29;;;;;;;7.20;4.13;;;21.60;91.80;;;;;;5096772;27;20093;-83
2023/08/18 10:53:55;;;;;;;7.68;3.70;;;21.60;91.80;;;;;;5120057;27;20079;-83
2023/08/18 10:56:20;;;;;;;9.10;3.58;;;21.30;91.80;;;;;;5098951;27;20059;-83
2023/08/18 10:58:47;;;;;;;7.30;3.50;;;21.70;91.90;;;;;;5071806;27;20141;-83
2023/08/18 11:01:19;;;;;;;6.78;4.00;;;21.70;91.70;;;;;;5087128;27;20039;-81
2023/08/18 11:03:45;;;;;;;6.90;3.70;;;21.80;91.60;;;;;;5082650;27;20055;-83
2023/08/18 11:06:11;;;;;;;5.93;3.70;;;21.90;91.40;;;;;;5083018;27;20129;-83
2023/08/18 11:08:37;;;;;;;7.50;3.75;;;21.90;91.30;;;;;;5095847;27;20043;-83
2023/08/18 11:11:03;;;;;;;7.20;3.60;;;21.90;91.20;;;;;;5099291;27;20039;-82
2023/08/18 11:13:29;;;;;;;7.65;3.92;;;21.90;91.20;;;;;;5054288;27;20510;-84
2023/08/18 11:15:56;;;;;;;5.80;3.60;;;22.00;91.10;;;;;;5053567;27;21811;-83
2023/08/18 11:18:22;;;;;;;6.47;3.95;;;22.10;91.10;;;;;;5083051;27;20044;-84
2023/08/18 11:20:52;;;;;;;7.68;4.15;;;22.20;90.90;;;;;;5096484;27;20130;-82
2023/08/18 11:23:23;;;;;;;6.68;3.85;;;22.20;90.50;;;;;;5069361;27;20178;-81
2023/08/18 11:25:50;;;;;;;5.15;4.00;;;22.30;90.40;;;;;;5066970;27;20051;-82
2023/08/18 11:28:17;;;;;;;7.00;3.90;;;22.40;90.20;;;;;;5087122;27;20046;-81
2023/08/18 11:30:43;;;;;;;7.43;4.18;;;22.50;89.80;;;;;;5094670;27;20180;-82
2023/08/18 11:33:11;;;;;;;5.65;3.45;;;22.80;88.90;;;;;;5075771;27;20195;-81
2023/08/18 11:35:38;;;;;;;6.97;4.00;;;22.60;88.00;;;;;;5093134;27;20078;-81
2023/08/18 11:38:04;;;;;;;6.25;3.70;;;23.20;87.00;;;;;;5080855;27;20047;-81
2023/08/18 11:40:36;;;;;;;7.35;4.80;;;23.40;85.10;;;;;;5097852;27;20040;-80
2023/08/18 11:43:10;;;;;;;7.13;4.80;;;23.60;82.40;;;;;;5093648;27;20040;-81
2023/08/18 11:45:36;;;;;;;6.43;4.10;;;23.60;81.20;;;;;;5065772;27;20111;-81
2023/08/18 11:48:05;;;;;;;8.10;4.82;;;23.80;81.40;;;;;;5093192;27;20050;-81
2023/08/18 11:50:39;;;;;;;8.05;5.40;;;23.80;80.20;;;;;;5100446;27;20040;-81
2023/08/18 11:53:07;;;;;;;7.18;4.28;;;23.90;78.10;;;;;;5089392;27;20375;-81
2023/08/18 11:55:39;;;;;;;5.63;4.82;;;24.00;78.30;;;;;;5078710;28;20385;-81
2023/08/18 11:58:14;;;;;;;7.63;4.63;;;24.30;77.90;;;;;;5095044;27;20054;-80
2023/08/18 12:07:52;;;;;;;7.50;5.43;;;24.80;68.30;;;;;;5107317;28;20048;-79
2023/08/18 12:10:57;;;;;;;8.45;5.63;;;24.70;69.50;;;;;;5107451;27;20145;-80
2023/08/18 12:13:24;;;;;;;9.07;5.30;;;24.90;70.20;;;;;;5094356;28;20126;-79
2023/08/18 12:15:52;;;;;;;7.93;5.90;;;24.90;71.70;;;;;;5089504;28;20054;-79
2023/08/18 12:18:36;;;;;;;9.52;5.63;;;25.00;70.80;;;;;;5097218;28;20565;-78
2023/08/18 12:21:03;;;;;;;9.20;5.55;;;25.30;70.10;;;;;;5078606;28;20134;-80
2023/08/18 12:24:07;;;;;;;8.90;5.28;;;25.10;69.00;;;;;;5084388;27;20162;-79
2023/08/18 12:26:41;;;;;;;10.50;6.80;;;25.10;67.60;;;;;;5099287;27;20056;-79
2023/08/18 12:29:31;;;;;;;9.05;6.30;;;25.00;67.80;;;;;;5110926;28;20103;-80
2023/08/18 12:31:57;;;;;;;8.55;5.78;;;25.00;67.60;;;;;;5111664;28;20587;-80
2023/08/18 12:35:16;;;;;;;9.35;6.35;;;25.00;67.30;;;;;;5086264;28;20398;-80
2023/08/18 12:37:42;;;;;;;8.68;6.20;;;25.00;65.00;;;;;;5110204;28;20050;-79
2023/08/18 12:40:22;;;;;;;10.43;5.85;;;25.00;66.20;;;;;;5052304;28;20382;-80
2023/08/18 12:42:48;;;;;;;10.68;5.95;;;25.10;65.90;;;;;;5093992;28;20577;-78
2023/08/18 12:45:14;;;;;;;8.95;5.65;;;25.10;64.20;;;;;;5079711;28;20048;-79
2023/08/18 12:47:46;;;;;;;10.27;6.10;;;25.30;63.60;;;;;;5094714;27;20562;-79
2023/08/18 12:50:38;;;;;;;11.85;5.75;;;25.70;61.60;;;;;;5113522;27;20130;-80
2023/08/18 12:53:22;;;;;;;8.75;5.88;;;25.90;57.90;;;;;;5096436;27;20062;-80
2023/08/18 12:55:48;;;;;;;7.95;5.40;;;26.10;56.30;;;;;;5104586;27;20054;-81
2023/08/18 12:58:37;;;;;;;10.60;5.88;;;26.30;55.20;;;;;;5098486;27;20126;-79
2023/08/18 13:01:54;;;;;;;9.95;6.80;;;26.40;51.40;;;;;;5088405;27;20086;-79
2023/08/18 13:04:52;;;;;;;7.85;5.50;;;26.40;41.10;;;;;;5102727;27;20511;-80
2023/08/18 13:10:56;;;;;;;8.98;6.18;;;26.50;46.10;;;;;;5116888;27;20077;-80
2023/08/18 13:13:48;;;;;;;9.25;5.10;;;26.40;47.10;;;;;;5084447;27;20047;-80
2023/08/18 13:19:55;;;;;;;7.82;5.97;;;26.50;44.30;;;;;;5117397;27;20079;-79
2023/08/18 13:22:23;;;;;;;8.93;6.30;;;26.80;46.70;;;;;;5065766;28;20052;-87